Friday, October 31, 2014, 2:08 AM EDT

KFYJ, West Point, Middle Peninsula Regional Airport

Location: Shacklefords, VA, United States Lat: 37.521
Local Time: 2:08 AM EDT ( 6:08 GMT) Lon: -76.764
Time Zone: US/Eastern Elev: 22 ft

Show me the last for .
Show Decoded

2014-10-31 01:55 METAR KFYJ 310555Z AUTO 00000KT 10SM CLR 06/04 A3003 RMK AO2 T00550036 10098
                 20043 401890043 =
2014-10-31 01:35 METAR KFYJ 310535Z AUTO 00000KT 10SM CLR 06/05 A3003 RMK AO2 T00640049 =
2014-10-31 01:15 METAR KFYJ 310515Z AUTO 00000KT 10SM CLR 06/04 A3003 RMK AO2 T00560040 =
2014-10-31 00:55 METAR KFYJ 310455Z AUTO 00000KT 10SM CLR 06/03 A3004 RMK AO2 T00550029 =
2014-10-31 00:35 METAR KFYJ 310435Z AUTO 00000KT 10SM CLR 07/05 A3004 RMK AO2 T00660050 =
2014-10-31 00:15 METAR KFYJ 310415Z AUTO 00000KT 10SM CLR 07/06 A3004 RMK AO2 T00720055 =
2014-10-30 23:55 METAR KFYJ 310355Z AUTO 00000KT 10SM CLR 07/05 A3004 RMK AO2 T00700051 =
2014-10-30 23:35 METAR KFYJ 310335Z AUTO 00000KT 10SM CLR 07/05 A3005 RMK AO2 T00670050 =
2014-10-30 23:15 METAR KFYJ 310315Z AUTO 00000KT 10SM CLR 06/03 A3005 RMK AO2 T00590034 =
2014-10-30 22:55 METAR KFYJ 310255Z AUTO 00000KT 10SM CLR 08/06 A3005 RMK AO2 T00820063 =
2014-10-30 22:35 METAR KFYJ 310235Z AUTO 00000KT 10SM CLR 07/06 A3005 RMK AO2 T00730056 =
2014-10-30 22:15 METAR KFYJ 310215Z AUTO 00000KT 10SM CLR 07/06 A3005 RMK AO2 T00730055 =
2014-10-30 21:55 METAR KFYJ 310155Z AUTO 00000KT 10SM CLR 06/03 A3004 RMK AO2 T00590034 =
2014-10-30 21:35 METAR KFYJ 310135Z AUTO 00000KT 10SM CLR 09/06 A3004 RMK AO2 T00860062 =
2014-10-30 21:15 METAR KFYJ 310115Z AUTO 32003KT 10SM CLR 09/07 A3004 RMK AO2 T00850066 =
2014-10-30 20:55 METAR KFYJ 310055Z AUTO 00000KT 10SM CLR 08/06 A3004 RMK AO2 T00790057 =
2014-10-30 20:35 METAR KFYJ 310035Z AUTO 00000KT 10SM CLR 09/06 A3004 RMK AO2 T00940064 =
2014-10-30 20:15 METAR KFYJ 310015Z AUTO 00000KT 10SM CLR 10/07 A3005 RMK AO2 T00970066 =
2014-10-30 19:55 METAR KFYJ 302355Z AUTO 00000KT 10SM CLR 10/06 A3005 RMK AO2 T00980058 10189
                 20098 =
2014-10-30 19:35 METAR KFYJ 302335Z AUTO 00000KT 10SM CLR 11/06 A3005 RMK AO2 T01080060 =
2014-10-30 19:15 METAR KFYJ 302315Z AUTO 00000KT 10SM CLR 11/06 A3005 RMK AO2 T01130060 =
2014-10-30 18:55 METAR KFYJ 302255Z AUTO 00000KT 10SM CLR 12/07 A3004 RMK AO2 T01150066 =
2014-10-30 18:35 METAR KFYJ 302235Z AUTO 03003KT 10SM SCT060 12/07 A3004 RMK AO2 T01210065 =
2014-10-30 18:15 METAR KFYJ 302215Z AUTO 03003KT 10SM SCT060 14/05 A3004 RMK AO2 T01400048 =
2014-10-30 17:55 METAR KFYJ 302155Z AUTO 03003KT 10SM CLR 15/05 A3003 RMK AO2 T01490045 =
2014-10-30 17:35 METAR KFYJ 302135Z AUTO 00000KT 10SM SCT060 16/03 A3003 RMK AO2 T01630034 =
2014-10-30 17:15 METAR KFYJ 302115Z AUTO 00000KT 10SM BKN060 17/03 A3002 RMK AO2 T01660029 =
2014-10-30 16:55 METAR KFYJ 302055Z AUTO 32003KT 10SM SCT060 17/03 A3002 RMK AO2 T01670028 =
2014-10-30 16:35 METAR KFYJ 302035Z AUTO 28004KT 10SM SCT060 17/03 A3002 RMK AO2 T01730028 =
2014-10-30 16:15 METAR KFYJ 302015Z AUTO 00000KT 10SM BKN060 17/04 A3002 RMK AO2 T01720036 =
2014-10-30 15:55 METAR KFYJ 301955Z AUTO 00000KT 10SM BKN060 17/03 A3002 RMK AO2 T01720034 =
2014-10-30 15:15 METAR KFYJ 301915Z AUTO 36003KT 10SM CLR 19/02 A3002 RMK AO2 T01870022 =
2014-10-30 14:55 METAR KFYJ 301855Z AUTO 31005KT 7SM CLR 18/02 A3002 RMK AO2 T01840018 =
2014-10-30 14:35 METAR KFYJ 301835Z AUTO 34007KT 7SM CLR 18/02 A3002 RMK AO2 T01810021 =
2014-10-30 14:15 METAR KFYJ 301815Z AUTO 32007KT 10SM CLR 18/03 A3003 RMK AO2 T01830026 =
2014-10-30 13:55 METAR KFYJ 301755Z AUTO 31003KT 10SM CLR 18/03 A3003 RMK AO2 T01820030 10185
                 20107 =
2014-10-30 13:35 METAR KFYJ 301735Z AUTO 36005KT 10SM CLR 18/04 A3004 RMK AO2 T01820037 =
2014-10-30 13:15 METAR KFYJ 301715Z AUTO 34008KT 10SM CLR 18/05 A3005 RMK AO2 T01830047 =
2014-10-30 12:55 METAR KFYJ 301655Z AUTO 31004KT 10SM CLR 18/05 A3005 RMK AO2 T01780052 =
2014-10-30 12:35 METAR KFYJ 301635Z AUTO 36003KT 10SM CLR 18/05 A3006 RMK AO2 T01780050 =
2014-10-30 12:15 METAR KFYJ 301615Z AUTO 36005KT 10SM CLR 18/05 A3007 RMK AO2 T01750053 =
2014-10-30 11:55 METAR KFYJ 301555Z AUTO 35007KT 10SM CLR 17/06 A3008 RMK AO2 T01710056 =
2014-10-30 11:35 METAR KFYJ 301535Z AUTO 03006KT 10SM CLR 17/06 A3008 RMK AO2 T01710056 =
2014-10-30 11:15 METAR KFYJ 301515Z AUTO 36004KT 10SM CLR 17/06 A3008 RMK AO2 T01670063 =
2014-10-30 10:55 METAR KFYJ 301455Z AUTO 02006KT 10SM CLR 16/07 A3008 RMK AO2 T01620070 =
2014-10-30 10:35 METAR KFYJ 301435Z AUTO 36007KT 330V030 10SM CLR 15/07 A3007 RMK AO2 T01520072 =
2014-10-30 10:15 METAR KFYJ 301415Z AUTO 35004KT 10SM CLR 15/09 A3007 RMK AO2 T01470085 =
2014-10-30 09:55 METAR KFYJ 301355Z AUTO 36005KT 10SM CLR 14/08 A3007 RMK AO2 T01390082 =
2014-10-30 09:35 METAR KFYJ 301335Z AUTO 35006KT 10SM CLR 13/09 A3007 RMK AO2 T01310086 =
2014-10-30 09:15 METAR KFYJ 301315Z AUTO 35004KT 10SM CLR 12/09 A3007 RMK AO2 T01240089 =
2014-10-30 08:55 METAR KFYJ 301255Z AUTO 35004KT 10SM CLR 11/10 A3007 RMK AO2 T01130100 =
2014-10-30 08:35 METAR KFYJ 301235Z AUTO 35006KT 10SM CLR 11/10 A3006 RMK AO2 T01120102 =
2014-10-30 08:15 METAR KFYJ 301215Z AUTO 00000KT 10SM CLR 11/10 A3005 RMK AO2 T01100100 =
2014-10-30 07:55 METAR KFYJ 301155Z AUTO 00000KT 7SM CLR 11/10 A3005 RMK AO2 60001 70018
                 T01080097 10135 20082 =
2014-10-30 07:35 METAR KFYJ 301135Z AUTO 31003KT 2 1/2SM CLR 11/10 A3004 RMK AO2 VIS 1/2V5
                 T01070097 =
2014-10-30 07:15 METAR KFYJ 301115Z AUTO 00000KT 1/4SM VV002 08/07 A3004 RMK AO2 T00830072 =
2014-10-30 06:55 METAR KFYJ 301055Z AUTO 00000KT 1/4SM VV002 09/08 A3003 RMK AO2 T00930082 =
2014-10-30 06:35 METAR KFYJ 301035Z AUTO 00000KT 1/4SM VV002 11/09 A3003 RMK AO2 T01050093 =
2014-10-30 06:15 METAR KFYJ 301015Z AUTO 00000KT 1/2SM BKN095 10/09 A3003 RMK AO2 T01030089 =
2014-10-30 05:55 METAR KFYJ 300955Z AUTO 00000KT 10SM SCT120 12/11 A3002 RMK AO2 T01200107 =
2014-10-30 05:35 METAR KFYJ 300935Z AUTO 00000KT 10SM BKN120 13/11 A3002 RMK AO2 T01260113 =
2014-10-30 05:15 METAR KFYJ 300915Z AUTO 00000KT 10SM OVC110 13/12 A3001 RMK AO2 T01260115 =
2014-10-30 04:55 METAR KFYJ 300855Z AUTO 00000KT 10SM BKN110 13/12 A3002 RMK AO2 60001 T01270115
                 =
2014-10-30 04:35 METAR KFYJ 300835Z AUTO 00000KT 7SM BKN120 13/11 A3001 RMK AO2 T01260113 =
2014-10-30 04:15 METAR KFYJ 300815Z AUTO 00000KT 3SM BKN110 13/12 A3001 RMK AO2 T01300116 =
2014-10-30 03:55 METAR KFYJ 300755Z AUTO 00000KT 5SM BKN110 13/12 A3001 RMK AO2 P0001 T01310117 =
2014-10-30 03:35 METAR KFYJ 300735Z AUTO 00000KT 10SM OVC100 13/12 A3002 RMK AO2 P0001 T01330120
                 =
2014-10-30 03:15 METAR KFYJ 300715Z AUTO 00000KT 10SM OVC100 13/12 A3003 RMK AO2 P0001 T01320119
                 =
2014-10-30 02:55 METAR KFYJ 300655Z AUTO 00000KT 10SM OVC090 13/12 A3003 RMK AO2 T01330120 =
2014-10-30 02:35 METAR KFYJ 300635Z AUTO 00000KT 10SM SCT060 BKN075 OVC090 14/12 A3003 RMK AO2
                 T01350122 =
2014-10-30 02:15 METAR KFYJ 300615Z AUTO 27006KT 10SM SCT060 BKN075 OVC110 13/12 A3004 RMK AO2
                 T01320120 =

Support USWX by starting your Amazon purchase here.